createdAt,value
2018-12-06T00:00:44.764Z,0
2018-12-06T00:01:44.732Z,0
2018-12-06T00:02:43.960Z,0
2018-12-06T00:03:44.703Z,0
2018-12-06T00:04:44.474Z,0
2018-12-06T00:05:44.440Z,0
2018-12-06T00:06:43.971Z,0
2018-12-06T00:07:43.944Z,0
2018-12-06T00:08:44.421Z,0
2018-12-06T00:09:44.173Z,0
2018-12-06T00:10:44.444Z,0
2018-12-06T00:11:44.679Z,0
2018-12-06T00:12:44.769Z,0
2018-12-06T00:13:44.419Z,0
2018-12-06T00:14:44.620Z,0
2018-12-06T00:15:43.885Z,0
2018-12-06T00:16:44.470Z,0
2018-12-06T00:17:44.139Z,0
2018-12-06T00:18:44.394Z,0
2018-12-06T00:19:44.154Z,0
2018-12-06T00:20:43.871Z,0
2018-12-06T00:21:44.112Z,0
2018-12-06T00:22:43.932Z,0
2018-12-06T00:23:44.086Z,0
2018-12-06T00:24:44.322Z,0
2018-12-06T00:25:43.810Z,0
2018-12-06T00:26:44.101Z,0
2018-12-06T00:27:44.052Z,0
2018-12-06T00:28:44.316Z,0
2018-12-06T00:29:44.036Z,0
2018-12-06T00:30:44.535Z,0
2018-12-06T00:31:44.045Z,0
2018-12-06T00:32:44.266Z,0
2018-12-06T00:33:44.262Z,0
2018-12-06T00:34:43.762Z,0
2018-12-06T00:35:44.264Z,0
2018-12-06T00:36:44.003Z,0
2018-12-06T00:37:44.231Z,0
2018-12-06T00:38:44.491Z,0
2018-12-06T00:39:44.229Z,0
2018-12-06T00:40:43.984Z,0
2018-12-06T00:41:44.238Z,0
2018-12-06T00:42:43.704Z,0
2018-12-06T00:43:44.464Z,0
2018-12-06T00:44:44.437Z,0
2018-12-06T00:45:44.456Z,0
2018-12-06T00:46:44.191Z,0
2018-12-06T00:47:44.425Z,0
2018-12-06T00:48:44.191Z,0
2018-12-06T00:49:43.913Z,0
2018-12-06T00:50:44.169Z,0
2018-12-06T00:51:44.283Z,0
2018-12-06T00:52:43.670Z,0
2018-12-06T00:53:43.898Z,0
2018-12-06T00:54:44.184Z,0
2018-12-06T00:55:43.629Z,0
2018-12-06T00:56:44.372Z,0
2018-12-06T00:57:44.101Z,0
2018-12-06T00:58:43.880Z,0
2018-12-06T00:59:44.082Z,0
2018-12-06T01:00:44.068Z,0
2018-12-06T01:01:43.597Z,0
2018-12-06T01:02:43.810Z,0
2018-12-06T01:03:43.815Z,0
2018-12-06T01:04:44.120Z,0
2018-12-06T01:05:44.139Z,0
2018-12-06T01:06:44.287Z,0
2018-12-06T01:07:43.546Z,0
2018-12-06T01:08:44.268Z,0
2018-12-06T01:09:44.017Z,0
2018-12-06T01:10:43.589Z,0
2018-12-06T01:11:43.753Z,0
2018-12-06T01:12:43.768Z,0
2018-12-06T01:13:43.737Z,0
2018-12-06T01:14:43.967Z,0
2018-12-06T01:15:44.220Z,0
2018-12-06T01:16:43.734Z,0
2018-12-06T01:17:43.954Z,0
2018-12-06T01:18:44.088Z,0
2018-12-06T01:19:43.679Z,0
2018-12-06T01:20:43.432Z,0
2018-12-06T01:21:44.200Z,0
2018-12-06T01:22:43.787Z,0
2018-12-06T01:23:43.915Z,0
2018-12-06T01:24:44.175Z,0
2018-12-06T01:25:44.183Z,0
2018-12-06T01:26:43.884Z,0
2018-12-06T01:27:43.858Z,0
2018-12-06T01:28:43.355Z,0
2018-12-06T01:29:43.617Z,0
2018-12-06T01:30:45.528Z,0
2018-12-06T01:31:43.583Z,0
2018-12-06T01:32:44.094Z,0
2018-12-06T01:33:43.817Z,0
2018-12-06T01:34:44.065Z,0
2018-12-06T01:35:43.793Z,0
2018-12-06T01:36:44.048Z,0
2018-12-06T01:37:44.020Z,0
2018-12-06T01:38:43.761Z,0
2018-12-06T01:39:43.289Z,0
2018-12-06T01:40:43.525Z,0
2018-12-06T01:41:43.484Z,0
2018-12-06T01:42:43.248Z,0
2018-12-06T01:43:43.735Z,0
2018-12-06T01:44:43.731Z,0
2018-12-06T01:45:43.475Z,0
2018-12-06T01:46:43.466Z,0
2018-12-06T01:47:43.952Z,0
2018-12-06T01:48:43.713Z,0
2018-12-06T01:49:43.679Z,0
2018-12-06T01:50:43.694Z,0
2018-12-06T01:51:43.950Z,0
2018-12-06T01:52:43.402Z,0
2018-12-06T01:53:43.399Z,0
2018-12-06T01:54:43.628Z,0
2018-12-06T01:55:43.133Z,0
2018-12-06T01:56:43.606Z,0
2018-12-06T01:57:43.117Z,0
2018-12-06T01:58:43.888Z,0
2018-12-06T01:59:43.606Z,0
2018-12-06T02:00:43.822Z,0
2018-12-06T02:01:43.423Z,0
2018-12-06T02:02:43.567Z,0
2018-12-06T02:03:43.391Z,0
2018-12-06T02:04:43.556Z,0
2018-12-06T02:05:43.301Z,0
2018-12-06T02:06:43.788Z,0
2018-12-06T02:07:43.314Z,0
2018-12-06T02:08:43.026Z,0
2018-12-06T02:09:43.265Z,0
2018-12-06T02:10:43.549Z,0
2018-12-06T02:11:43.778Z,0
2018-12-06T02:12:43.480Z,0
2018-12-06T02:13:43.718Z,0
2018-12-06T02:14:43.819Z,0
2018-12-06T02:15:43.720Z,0
2018-12-06T02:16:43.903Z,0
2018-12-06T02:17:43.496Z,0
2018-12-06T02:18:43.442Z,0
2018-12-06T02:19:43.445Z,0
2018-12-06T02:20:43.673Z,0
2018-12-06T02:21:43.650Z,0
2018-12-06T02:22:43.410Z,0
2018-12-06T02:23:43.413Z,0
2018-12-06T02:24:43.627Z,0
2018-12-06T02:25:43.627Z,0
2018-12-06T02:26:43.364Z,0
2018-12-06T02:27:43.143Z,0
2018-12-06T02:28:43.619Z,0
2018-12-06T02:29:43.592Z,0
2018-12-06T02:30:43.121Z,0
2018-12-06T02:31:43.604Z,0
2018-12-06T02:32:44.333Z,0
2018-12-06T02:33:43.817Z,0
2018-12-06T02:34:43.303Z,0
2018-12-06T02:35:43.069Z,0
2018-12-06T02:36:43.319Z,0
2018-12-06T02:37:43.293Z,0
2018-12-06T02:38:43.554Z,0
2018-12-06T02:39:43.056Z,0
2018-12-06T02:40:43.025Z,0
2018-12-06T02:41:43.272Z,0
2018-12-06T02:42:42.535Z,0
2018-12-06T02:43:43.019Z,0
2018-12-06T02:44:43.002Z,0
2018-12-06T02:45:43.230Z,0
2018-12-06T02:46:43.516Z,0
2018-12-06T02:47:43.230Z,0
2018-12-06T02:48:43.604Z,0
2018-12-06T02:49:43.521Z,0
2018-12-06T02:50:43.211Z,0
2018-12-06T02:51:43.447Z,0
2018-12-06T02:52:43.454Z,0
2018-12-06T02:53:43.177Z,0
2018-12-06T02:54:43.182Z,0
2018-12-06T02:55:43.425Z,0
2018-12-06T02:56:43.406Z,0
2018-12-06T02:57:43.160Z,0
2018-12-06T02:58:43.156Z,0
2018-12-06T02:59:43.161Z,0
2018-12-06T03:00:43.391Z,0
2018-12-06T03:01:43.141Z,0
2018-12-06T03:02:43.374Z,0
2018-12-06T03:03:43.922Z,0
2018-12-06T03:04:43.353Z,0
2018-12-06T03:05:43.116Z,0
2018-12-06T03:06:42.843Z,0
2018-12-06T03:07:42.859Z,0
2018-12-06T03:08:43.083Z,0
2018-12-06T03:09:42.834Z,0
2018-12-06T03:10:43.069Z,0
2018-12-06T03:11:43.073Z,0
2018-12-06T03:12:43.060Z,0
2018-12-06T03:13:43.307Z,0
2018-12-06T03:14:43.055Z,0
2018-12-06T03:15:43.298Z,0
2018-12-06T03:16:43.086Z,0
2018-12-06T03:17:43.083Z,0
2018-12-06T03:18:43.026Z,0
2018-12-06T03:19:43.273Z,0
2018-12-06T03:20:43.239Z,0
2018-12-06T03:21:42.767Z,0
2018-12-06T03:22:43.229Z,0
2018-12-06T03:23:42.992Z,0
2018-12-06T03:24:42.994Z,0
2018-12-06T03:25:43.220Z,0
2018-12-06T03:26:42.720Z,0
2018-12-06T03:27:43.240Z,0
2018-12-06T03:28:42.969Z,0
2018-12-06T03:29:42.719Z,0
2018-12-06T03:30:42.576Z,0
2018-12-06T03:31:42.490Z,0
2018-12-06T03:32:43.200Z,0
2018-12-06T03:33:42.959Z,0
2018-12-06T03:34:42.932Z,0
2018-12-06T03:35:42.907Z,0
2018-12-06T03:36:42.933Z,0
2018-12-06T03:37:42.897Z,0
2018-12-06T03:38:42.900Z,0
2018-12-06T03:39:42.724Z,0
2018-12-06T03:40:42.871Z,0
2018-12-06T03:41:42.863Z,0
2018-12-06T03:42:42.868Z,0
2018-12-06T03:43:42.605Z,0
2018-12-06T03:44:42.724Z,0
2018-12-06T03:45:42.885Z,0
2018-12-06T03:46:42.613Z,0
2018-12-06T03:47:43.072Z,0
2018-12-06T03:48:42.830Z,0
2018-12-06T03:49:42.566Z,0
2018-12-06T03:50:42.818Z,0
2018-12-06T03:51:42.563Z,0
2018-12-06T03:52:42.550Z,0
2018-12-06T03:53:43.041Z,0
2018-12-06T03:54:42.798Z,0
2018-12-06T03:55:42.786Z,0
2018-12-06T03:56:42.772Z,0
2018-12-06T03:57:43.153Z,0
2018-12-06T03:58:43.031Z,0
2018-12-06T03:59:42.745Z,0
2018-12-06T04:00:42.750Z,0
2018-12-06T04:01:42.979Z,0
2018-12-06T04:02:42.746Z,0
2018-12-06T04:03:42.751Z,0
2018-12-06T04:04:42.702Z,0
2018-12-06T04:05:42.724Z,0
2018-12-06T04:06:42.446Z,0
2018-12-06T04:07:42.694Z,0
2018-12-06T04:08:42.689Z,0
2018-12-06T04:09:42.702Z,0
2018-12-06T04:10:42.678Z,0
2018-12-06T04:11:42.705Z,0
2018-12-06T04:12:42.681Z,0
2018-12-06T04:13:42.420Z,0
2018-12-06T04:14:42.700Z,0
2018-12-06T04:15:42.390Z,0
2018-12-06T04:16:42.885Z,0
2018-12-06T04:17:42.876Z,0
2018-12-06T04:18:42.378Z,0
2018-12-06T04:19:42.622Z,0
2018-12-06T04:20:42.966Z,0
2018-12-06T04:21:42.849Z,0
2018-12-06T04:22:42.359Z,0
2018-12-06T04:23:42.862Z,0
2018-12-06T04:24:42.358Z,0
2018-12-06T04:25:42.858Z,0
2018-12-06T04:26:42.571Z,0
2018-12-06T04:27:42.332Z,0
2018-12-06T04:28:42.593Z,0
2018-12-06T04:29:42.817Z,0
2018-12-06T04:30:42.567Z,0
2018-12-06T04:31:42.554Z,0
2018-12-06T04:32:42.799Z,0
2018-12-06T04:33:42.535Z,0
2018-12-06T04:34:42.512Z,0
2018-12-06T04:35:42.021Z,0
2018-12-06T04:36:42.526Z,0
2018-12-06T04:37:42.501Z,0
2018-12-06T04:38:42.532Z,0
2018-12-06T04:39:42.754Z,0
2018-12-06T04:40:42.500Z,0
2018-12-06T04:41:42.477Z,0
2018-12-06T04:42:42.704Z,0
2018-12-06T04:43:42.498Z,0
2018-12-06T04:44:42.206Z,0
2018-12-06T04:45:42.697Z,0
2018-12-06T04:46:42.215Z,0
2018-12-06T04:47:42.680Z,0
2018-12-06T04:48:42.451Z,0
2018-12-06T04:49:42.250Z,0
2018-12-06T04:50:42.165Z,0
2018-12-06T04:51:42.405Z,0
2018-12-06T04:52:42.410Z,0
2018-12-06T04:53:42.395Z,0
2018-12-06T04:54:42.410Z,0
2018-12-06T04:55:42.019Z,0
2018-12-06T04:56:42.152Z,0
2018-12-06T04:57:42.120Z,0
2018-12-06T04:58:42.382Z,0
2018-12-06T04:59:42.359Z,0
2018-12-06T05:00:42.364Z,0
2018-12-06T05:01:42.326Z,0
2018-12-06T05:02:42.080Z,0
2018-12-06T05:03:42.077Z,0
2018-12-06T05:04:42.301Z,0
2018-12-06T05:05:42.077Z,0
2018-12-06T05:06:42.047Z,0
2018-12-06T05:07:42.295Z,0
2018-12-06T05:08:42.289Z,0
2018-12-06T05:09:42.517Z,0
2018-12-06T05:10:42.018Z,0
2018-12-06T05:11:41.999Z,0
2018-12-06T05:12:42.008Z,0
2018-12-06T05:13:41.995Z,0
2018-12-06T05:14:42.484Z,0
2018-12-06T05:15:41.990Z,0
2018-12-06T05:16:42.475Z,0
2018-12-06T05:17:42.223Z,0
2018-12-06T05:18:42.196Z,0
2018-12-06T05:19:41.959Z,0
2018-12-06T05:20:42.185Z,0
2018-12-06T05:21:42.196Z,0
2018-12-06T05:22:41.674Z,0
2018-12-06T05:23:41.909Z,0
2018-12-06T05:24:42.957Z,0
2018-12-06T05:25:42.146Z,0
2018-12-06T05:26:42.168Z,0
2018-12-06T05:27:42.172Z,0
2018-12-06T05:28:42.113Z,0
2018-12-06T05:29:42.124Z,0
2018-12-06T05:30:41.868Z,0
2018-12-06T05:31:41.694Z,0
2018-12-06T05:32:41.888Z,0
2018-12-06T05:33:41.381Z,0
2018-12-06T05:34:41.841Z,0
2018-12-06T05:35:42.095Z,0
2018-12-06T05:36:42.333Z,0
2018-12-06T05:37:41.825Z,0
2018-12-06T05:38:42.050Z,0
2018-12-06T05:39:41.323Z,0
2018-12-06T05:40:42.044Z,0
2018-12-06T05:41:41.547Z,0
2018-12-06T05:42:42.051Z,0
2018-12-06T05:43:41.543Z,0
2018-12-06T05:44:42.294Z,0
2018-12-06T05:45:42.265Z,0
2018-12-06T05:46:41.763Z,0
2018-12-06T05:47:41.504Z,0
2018-12-06T05:48:42.245Z,0
2018-12-06T05:49:41.735Z,0
2018-12-06T05:50:41.752Z,0
2018-12-06T05:51:41.734Z,0
2018-12-06T05:52:41.978Z,0
2018-12-06T05:53:41.970Z,0
2018-12-06T05:54:41.701Z,0
2018-12-06T05:55:41.979Z,0
2018-12-06T05:56:41.456Z,0
2018-12-06T05:57:41.690Z,0
2018-12-06T05:58:42.184Z,0
2018-12-06T05:59:41.989Z,0
2018-12-06T06:00:41.660Z,0
2018-12-06T06:01:41.667Z,0
2018-12-06T06:02:41.667Z,0
2018-12-06T06:03:43.447Z,0
2018-12-06T06:04:42.166Z,0
2018-12-06T06:05:41.480Z,0
2018-12-06T06:06:41.385Z,0
2018-12-06T06:07:41.600Z,0
2018-12-06T06:08:41.370Z,0
2018-12-06T06:09:41.858Z,0
2018-12-06T06:10:41.851Z,0
2018-12-06T06:11:41.576Z,0
2018-12-06T06:12:41.601Z,0
2018-12-06T06:13:41.827Z,0
2018-12-06T06:14:42.195Z,0
2018-12-06T06:15:41.816Z,0
2018-12-06T06:16:41.578Z,0
2018-12-06T06:17:41.792Z,0
2018-12-06T06:18:41.575Z,0
2018-12-06T06:19:41.538Z,0
2018-12-06T06:20:42.042Z,0
2018-12-06T06:21:41.768Z,0
2018-12-06T06:22:42.015Z,0
2018-12-06T06:23:41.549Z,0
2018-12-06T06:24:41.005Z,0
2018-12-06T06:25:41.505Z,0
2018-12-06T06:26:41.727Z,0
2018-12-06T06:27:41.762Z,0
2018-12-06T06:28:42.074Z,0
2018-12-06T06:29:41.647Z,0
2018-12-06T06:30:41.216Z,0
2018-12-06T06:31:41.455Z,0
2018-12-06T06:32:41.460Z,0
2018-12-06T06:33:41.454Z,0
2018-12-06T06:34:42.242Z,0
2018-12-06T06:35:41.514Z,0
2018-12-06T06:36:41.742Z,0
2018-12-06T06:37:41.391Z,0
2018-12-06T06:38:41.903Z,0
2018-12-06T06:39:41.391Z,0
2018-12-06T06:40:41.910Z,0
2018-12-06T06:41:41.867Z,0
2018-12-06T06:42:41.624Z,0
2018-12-06T06:43:41.382Z,0
2018-12-06T06:44:41.355Z,0
2018-12-06T06:45:41.586Z,0
2018-12-06T06:46:41.582Z,0
2018-12-06T06:47:41.863Z,0
2018-12-06T06:48:41.341Z,0
2018-12-06T06:49:41.332Z,0
2018-12-06T06:50:41.308Z,0
2018-12-06T06:51:41.059Z,0
2018-12-06T06:52:41.303Z,0
2018-12-06T06:53:41.295Z,0
2018-12-06T06:54:41.052Z,0
2018-12-06T06:55:41.295Z,0
2018-12-06T06:56:41.556Z,0
2018-12-06T06:57:41.514Z,0
2018-12-06T06:58:41.522Z,0
2018-12-06T06:59:41.493Z,0
2018-12-06T07:00:41.732Z,0
2018-12-06T07:01:41.469Z,0
2018-12-06T07:02:41.258Z,0
2018-12-06T07:03:41.750Z,0
2018-12-06T07:04:40.964Z,0
2018-12-06T07:05:41.223Z,0
2018-12-06T07:06:41.703Z,0
2018-12-06T07:07:40.940Z,0
2018-12-06T07:08:41.192Z,0
2018-12-06T07:09:40.942Z,0
2018-12-06T07:10:41.662Z,0
2018-12-06T07:11:41.184Z,0
2018-12-06T07:12:41.230Z,0
2018-12-06T07:13:41.211Z,0
2018-12-06T07:14:41.145Z,0
2018-12-06T07:15:41.394Z,0
2018-12-06T07:16:41.385Z,0
2018-12-06T07:17:41.393Z,5
2018-12-06T07:18:41.129Z,5
2018-12-06T07:19:41.361Z,5
2018-12-06T07:20:41.586Z,5
2018-12-06T07:21:41.085Z,5
2018-12-06T07:22:41.069Z,5
2018-12-06T07:23:41.559Z,5
2018-12-06T07:24:41.072Z,5
2018-12-06T07:25:48.348Z,5
2018-12-06T07:26:41.623Z,5
2018-12-06T07:27:41.081Z,5
2018-12-06T07:28:41.320Z,10
2018-12-06T07:29:41.294Z,10
2018-12-06T07:30:41.135Z,10
2018-12-06T07:31:41.285Z,10
2018-12-06T07:32:41.028Z,10
2018-12-06T07:33:41.268Z,10
2018-12-06T07:34:41.554Z,10
2018-12-06T07:35:41.775Z,10
2018-12-06T07:36:41.563Z,10
2018-12-06T07:37:41.248Z,10
2018-12-06T07:38:41.486Z,10
2018-12-06T07:39:41.220Z,10
2018-12-06T07:40:40.966Z,10
2018-12-06T07:41:40.950Z,10
2018-12-06T07:42:41.200Z,10
2018-12-06T07:43:40.942Z,10
2018-12-06T07:44:41.186Z,10
2018-12-06T07:45:41.181Z,15
2018-12-06T07:46:41.191Z,15
2018-12-06T07:47:41.418Z,15
2018-12-06T07:48:42.030Z,15
2018-12-06T07:49:40.926Z,20
2018-12-06T07:50:41.161Z,20
2018-12-06T07:51:41.421Z,20
2018-12-06T07:52:40.923Z,15
2018-12-06T07:53:41.393Z,15
2018-12-06T07:54:40.885Z,15
2018-12-06T07:55:41.126Z,15
2018-12-06T07:56:41.116Z,15
2018-12-06T07:57:40.606Z,15
2018-12-06T07:58:40.841Z,15
2018-12-06T07:59:40.856Z,15
2018-12-06T08:00:40.840Z,15
2018-12-06T08:01:41.087Z,10
2018-12-06T08:02:40.865Z,10
2018-12-06T08:03:41.075Z,10
2018-12-06T08:04:40.575Z,10
2018-12-06T08:05:41.313Z,10
2018-12-06T08:06:41.320Z,10
2018-12-06T08:07:41.320Z,10
2018-12-06T08:08:41.045Z,10
2018-12-06T08:09:41.279Z,10
2018-12-06T08:10:41.052Z,10
2018-12-06T08:11:41.247Z,10
2018-12-06T08:12:41.041Z,10
2018-12-06T08:13:41.018Z,15
2018-12-06T08:14:41.000Z,15
2018-12-06T08:15:40.753Z,15
2018-12-06T08:16:40.995Z,15
2018-12-06T08:17:40.747Z,15
2018-12-06T08:18:40.501Z,10
2018-12-06T08:19:40.749Z,15
2018-12-06T08:20:40.551Z,15
2018-12-06T08:21:41.217Z,15
2018-12-06T08:22:41.206Z,15
2018-12-06T08:23:40.717Z,15
2018-12-06T08:24:40.947Z,15
2018-12-06T08:25:40.743Z,20
2018-12-06T08:26:41.184Z,20
2018-12-06T08:27:41.201Z,20
2018-12-06T08:28:40.919Z,20
2018-12-06T08:29:40.949Z,20
2018-12-06T08:30:42.126Z,20
2018-12-06T08:31:40.972Z,20
2018-12-06T08:32:41.163Z,20
2018-12-06T08:33:40.670Z,20
2018-12-06T08:34:40.696Z,20
2018-12-06T08:35:40.940Z,20
2018-12-06T08:36:41.153Z,25
2018-12-06T08:37:40.890Z,25
2018-12-06T08:38:40.884Z,30
2018-12-06T08:39:40.873Z,35
2018-12-06T08:40:41.099Z,35
2018-12-06T08:41:40.864Z,40
2018-12-06T08:42:48.001Z,45
2018-12-06T08:43:41.132Z,45
2018-12-06T08:44:41.113Z,45
2018-12-06T08:45:40.341Z,45
2018-12-06T08:46:40.844Z,40
2018-12-06T08:47:41.143Z,40
2018-12-06T08:48:40.587Z,35
2018-12-06T08:49:40.578Z,30
2018-12-06T08:50:40.827Z,30
2018-12-06T08:51:40.844Z,30
2018-12-06T08:52:40.829Z,35
2018-12-06T08:53:40.976Z,35
2018-12-06T08:54:40.539Z,40
2018-12-06T08:55:40.538Z,45
2018-12-06T08:56:41.018Z,50
2018-12-06T08:57:40.531Z,55
2018-12-06T08:58:41.008Z,50
2018-12-06T08:59:41.009Z,55
2018-12-06T09:00:40.772Z,55
2018-12-06T09:01:40.495Z,55
2018-12-06T09:02:40.515Z,55
2018-12-06T09:03:40.752Z,55
2018-12-06T09:04:42.464Z,55
2018-12-06T09:05:40.505Z,55
2018-12-06T09:06:40.977Z,55
2018-12-06T09:07:40.716Z,60
2018-12-06T09:08:40.488Z,60
2018-12-06T09:09:40.685Z,60
2018-12-06T09:10:40.776Z,60
2018-12-06T09:11:40.705Z,55
2018-12-06T09:12:40.942Z,55
2018-12-06T09:13:40.969Z,60
2018-12-06T09:14:40.929Z,60
2018-12-06T09:15:40.652Z,65
2018-12-06T09:16:40.923Z,70
2018-12-06T09:17:40.915Z,75
2018-12-06T09:18:40.644Z,80
2018-12-06T09:19:40.167Z,80
2018-12-06T09:20:40.898Z,85
2018-12-06T09:21:40.158Z,80
2018-12-06T09:22:40.882Z,80
2018-12-06T09:23:40.376Z,75
2018-12-06T09:24:40.878Z,70
2018-12-06T09:25:40.370Z,70
2018-12-06T09:26:40.369Z,65
2018-12-06T09:27:40.607Z,65
2018-12-06T09:28:40.862Z,65
2018-12-06T09:29:40.620Z,65
2018-12-06T09:30:40.347Z,70
2018-12-06T09:31:40.588Z,70
2018-12-06T09:32:40.095Z,75
2018-12-06T09:33:40.855Z,75
2018-12-06T09:34:40.826Z,75
2018-12-06T09:35:41.397Z,75
2018-12-06T09:36:40.340Z,75
2018-12-06T09:37:40.820Z,75
2018-12-06T09:38:40.548Z,75
2018-12-06T09:39:40.309Z,75
2018-12-06T09:40:40.293Z,80
2018-12-06T09:41:40.060Z,80
2018-12-06T09:42:41.912Z,75
2018-12-06T09:43:40.528Z,70
2018-12-06T09:44:40.790Z,65
2018-12-06T09:45:40.268Z,65
2018-12-06T09:46:40.543Z,65
2018-12-06T09:47:40.506Z,65
2018-12-06T09:48:40.800Z,65
2018-12-06T09:49:42.460Z,65
2018-12-06T09:50:40.248Z,70
2018-12-06T09:51:40.739Z,70
2018-12-06T09:52:40.498Z,70
2018-12-06T09:53:40.730Z,70
2018-12-06T09:54:40.225Z,70
2018-12-06T09:55:40.465Z,65
2018-12-06T09:56:40.720Z,60
2018-12-06T09:57:40.700Z,60
2018-12-06T09:58:40.460Z,55
2018-12-06T09:59:40.218Z,55
2018-12-06T10:00:40.291Z,55
2018-12-06T10:01:40.464Z,55
2018-12-06T10:02:40.445Z,55
2018-12-06T10:03:40.434Z,55
2018-12-06T10:04:40.683Z,60
2018-12-06T10:05:40.191Z,60
2018-12-06T10:06:40.683Z,65
2018-12-06T10:07:40.688Z,75
2018-12-06T10:08:40.159Z,70
2018-12-06T10:09:40.159Z,70
2018-12-06T10:10:40.154Z,70
2018-12-06T10:11:40.151Z,75
2018-12-06T10:12:40.134Z,80
2018-12-06T10:13:40.158Z,85
2018-12-06T10:14:40.393Z,90
2018-12-06T10:15:40.114Z,95
2018-12-06T10:16:39.630Z,100
2018-12-06T10:17:40.357Z,100
2018-12-06T10:18:40.566Z,100
2018-12-06T10:19:40.593Z,95
2018-12-06T10:20:40.572Z,95
2018-12-06T10:21:40.312Z,95
2018-12-06T10:22:40.569Z,90
2018-12-06T10:23:41.849Z,95
2018-12-06T10:24:40.541Z,95
2018-12-06T10:25:40.561Z,110
2018-12-06T10:26:40.298Z,110
2018-12-06T10:27:40.576Z,135
2018-12-06T10:28:41.637Z,110
2018-12-06T10:29:40.057Z,100
2018-12-06T10:30:40.528Z,100
2018-12-06T10:31:40.290Z,105
2018-12-06T10:32:40.380Z,110
2018-12-06T10:33:40.528Z,125
2018-12-06T10:34:40.530Z,125
2018-12-06T10:35:40.262Z,120
2018-12-06T10:36:40.575Z,115
2018-12-06T10:37:40.009Z,115
2018-12-06T10:38:40.341Z,120
2018-12-06T10:39:40.499Z,125
2018-12-06T10:40:40.520Z,125
2018-12-06T10:41:40.511Z,130
2018-12-06T10:42:40.522Z,125
2018-12-06T10:43:39.998Z,120
2018-12-06T10:44:40.484Z,110
2018-12-06T10:45:40.250Z,95
2018-12-06T10:46:40.250Z,90
2018-12-06T10:47:40.466Z,80
2018-12-06T10:48:40.488Z,80
2018-12-06T10:49:40.234Z,75
2018-12-06T10:50:40.212Z,70
2018-12-06T10:51:40.211Z,60
2018-12-06T10:52:40.018Z,60
2018-12-06T10:53:39.972Z,60
2018-12-06T10:54:40.448Z,60
2018-12-06T10:55:39.980Z,65
2018-12-06T10:56:40.446Z,65
2018-12-06T10:57:40.431Z,70
2018-12-06T10:58:40.200Z,80
2018-12-06T10:59:40.185Z,85
2018-12-06T11:00:40.439Z,85
2018-12-06T11:01:39.951Z,85
2018-12-06T11:02:40.408Z,85
2018-12-06T11:03:40.438Z,80
2018-12-06T11:04:40.188Z,75
2018-12-06T11:05:40.408Z,75
2018-12-06T11:06:39.940Z,70
2018-12-06T11:07:40.404Z,70
2018-12-06T11:08:40.170Z,70
2018-12-06T11:09:40.175Z,70
2018-12-06T11:10:40.392Z,65
2018-12-06T11:11:40.179Z,65
2018-12-06T11:12:39.903Z,60
2018-12-06T11:13:40.166Z,60
2018-12-06T11:14:40.165Z,60
2018-12-06T11:15:40.393Z,60
2018-12-06T11:16:40.127Z,60
2018-12-06T11:17:40.129Z,65
2018-12-06T11:18:40.155Z,65
2018-12-06T11:19:40.396Z,65
2018-12-06T11:20:40.396Z,65
2018-12-06T11:21:39.886Z,65
2018-12-06T11:22:40.115Z,65
2018-12-06T11:23:40.355Z,60
2018-12-06T11:24:40.135Z,60
2018-12-06T11:25:40.356Z,60
2018-12-06T11:26:39.893Z,60
2018-12-06T11:27:40.357Z,60
2018-12-06T11:28:40.450Z,60
2018-12-06T11:29:40.354Z,60
2018-12-06T11:30:40.113Z,60
2018-12-06T11:31:40.371Z,60
2018-12-06T11:32:40.374Z,65
2018-12-06T11:33:39.641Z,70
2018-12-06T11:34:40.096Z,75
2018-12-06T11:35:40.906Z,75
2018-12-06T11:36:40.348Z,80
2018-12-06T11:37:41.941Z,85
2018-12-06T11:38:39.853Z,85
2018-12-06T11:39:40.348Z,80
2018-12-06T11:40:40.130Z,80
2018-12-06T11:41:47.381Z,80
2018-12-06T11:42:40.085Z,80
2018-12-06T11:43:40.326Z,90
2018-12-06T11:44:40.320Z,90
2018-12-06T11:45:40.330Z,95
2018-12-06T11:46:40.072Z,95
2018-12-06T11:47:40.342Z,95
2018-12-06T11:48:40.320Z,90
2018-12-06T11:49:40.323Z,90
2018-12-06T11:50:39.830Z,90
2018-12-06T11:51:40.060Z,90
2018-12-06T11:52:40.064Z,85
2018-12-06T11:53:40.303Z,90
2018-12-06T11:54:40.046Z,85
2018-12-06T11:55:40.248Z,85
2018-12-06T11:56:40.038Z,85
2018-12-06T11:57:39.802Z,80
2018-12-06T11:58:40.318Z,85
2018-12-06T11:59:40.068Z,85
2018-12-06T12:00:39.777Z,90
2018-12-06T12:01:40.083Z,95
2018-12-06T12:02:39.787Z,95
2018-12-06T12:03:40.398Z,95
2018-12-06T12:04:40.038Z,90
2018-12-06T12:05:40.072Z,85
2018-12-06T12:06:40.112Z,90
2018-12-06T12:07:39.783Z,90
2018-12-06T12:08:39.777Z,95
2018-12-06T12:09:40.037Z,100
2018-12-06T12:10:40.303Z,105
2018-12-06T12:11:40.039Z,105
2018-12-06T12:12:40.022Z,105
2018-12-06T12:13:40.016Z,105
2018-12-06T12:14:39.785Z,110
2018-12-06T12:15:40.261Z,110
2018-12-06T12:16:40.261Z,110
2018-12-06T12:17:40.012Z,110
2018-12-06T12:18:40.268Z,105
2018-12-06T12:19:40.287Z,110
2018-12-06T12:20:40.045Z,110
2018-12-06T12:21:40.031Z,110
2018-12-06T12:22:40.269Z,110
2018-12-06T12:23:40.020Z,105
2018-12-06T12:24:39.742Z,110
2018-12-06T12:25:39.754Z,110
2018-12-06T12:26:40.004Z,115
2018-12-06T12:27:40.266Z,115
2018-12-06T12:28:40.009Z,115
2018-12-06T12:29:39.734Z,120
2018-12-06T12:30:39.999Z,120
2018-12-06T12:31:40.000Z,120
2018-12-06T12:32:40.268Z,120
2018-12-06T12:33:40.009Z,120
2018-12-06T12:34:40.285Z,120
2018-12-06T12:35:39.754Z,125
2018-12-06T12:36:39.980Z,120
2018-12-06T12:37:40.084Z,120
2018-12-06T12:38:39.739Z,120
2018-12-06T12:39:40.279Z,120
2018-12-06T12:40:39.526Z,120
2018-12-06T12:41:40.231Z,120
2018-12-06T12:42:39.961Z,115
2018-12-06T12:43:39.471Z,110
2018-12-06T12:44:40.210Z,105
2018-12-06T12:45:39.713Z,110
2018-12-06T12:46:40.212Z,105
2018-12-06T12:47:39.789Z,105
2018-12-06T12:48:40.213Z,100
2018-12-06T12:49:40.252Z,100
2018-12-06T12:50:39.949Z,105
2018-12-06T12:51:39.957Z,100
2018-12-06T12:52:40.237Z,100
2018-12-06T12:53:39.933Z,100
2018-12-06T12:54:40.179Z,100
2018-12-06T12:55:39.683Z,95
2018-12-06T12:56:39.689Z,90
2018-12-06T12:57:39.685Z,90
2018-12-06T12:58:40.201Z,90
2018-12-06T12:59:40.231Z,90
2018-12-06T13:00:39.992Z,100
2018-12-06T13:01:40.183Z,95
2018-12-06T13:02:40.215Z,95
2018-12-06T13:03:39.954Z,95
2018-12-06T13:04:39.463Z,95
2018-12-06T13:05:40.618Z,100
2018-12-06T13:06:40.176Z,100
2018-12-06T13:07:39.506Z,110
2018-12-06T13:08:39.680Z,115
2018-12-06T13:09:40.192Z,120
2018-12-06T13:10:39.690Z,125
2018-12-06T13:11:40.180Z,130
2018-12-06T13:12:40.194Z,135
2018-12-06T13:13:39.955Z,140
2018-12-06T13:14:39.435Z,145
2018-12-06T13:15:40.178Z,140
2018-12-06T13:16:39.698Z,140
2018-12-06T13:17:40.153Z,145
2018-12-06T13:18:40.171Z,150
2018-12-06T13:19:40.150Z,150
2018-12-06T13:20:39.940Z,145
2018-12-06T13:21:40.010Z,150
2018-12-06T13:22:40.254Z,150
2018-12-06T13:23:41.145Z,155
2018-12-06T13:24:39.924Z,150
2018-12-06T13:25:39.652Z,150
2018-12-06T13:26:40.179Z,150
2018-12-06T13:27:39.907Z,150
2018-12-06T13:28:39.643Z,150
2018-12-06T13:29:39.902Z,140
2018-12-06T13:30:39.891Z,140
2018-12-06T13:31:39.890Z,140
2018-12-06T13:32:40.160Z,140
2018-12-06T13:33:39.649Z,135
2018-12-06T13:34:39.881Z,125
2018-12-06T13:35:40.135Z,125
2018-12-06T13:36:39.874Z,125
2018-12-06T13:37:39.873Z,120
2018-12-06T13:38:39.896Z,115
2018-12-06T13:39:39.924Z,110
2018-12-06T13:40:39.885Z,105
2018-12-06T13:41:39.886Z,105
2018-12-06T13:42:39.866Z,100
2018-12-06T13:43:39.658Z,95
2018-12-06T13:44:39.897Z,95
2018-12-06T13:45:39.893Z,90
2018-12-06T13:46:39.886Z,90
2018-12-06T13:47:39.681Z,90
2018-12-06T13:48:39.690Z,85
2018-12-06T13:49:39.882Z,85
2018-12-06T13:50:39.633Z,85
2018-12-06T13:51:39.893Z,85
2018-12-06T13:52:39.630Z,80
2018-12-06T13:53:40.125Z,80
2018-12-06T13:54:39.903Z,80
2018-12-06T13:55:40.126Z,80
2018-12-06T13:56:39.875Z,80
2018-12-06T13:57:39.672Z,80
2018-12-06T13:58:39.856Z,85
2018-12-06T13:59:39.867Z,85
2018-12-06T14:00:40.911Z,85
2018-12-06T14:01:39.850Z,85
2018-12-06T14:02:39.889Z,85
2018-12-06T14:03:39.965Z,85
2018-12-06T14:04:39.703Z,85
2018-12-06T14:05:39.426Z,85
2018-12-06T14:06:40.060Z,85
2018-12-06T14:07:40.529Z,85
2018-12-06T14:08:40.762Z,85
2018-12-06T14:09:39.691Z,85
2018-12-06T14:10:39.688Z,85
2018-12-06T14:11:39.947Z,85
2018-12-06T14:12:39.689Z,85
2018-12-06T14:13:39.939Z,80
2018-12-06T14:14:39.899Z,80
2018-12-06T14:15:39.649Z,80
2018-12-06T14:16:39.887Z,80
2018-12-06T14:17:39.647Z,75
2018-12-06T14:18:39.666Z,75
2018-12-06T14:19:40.124Z,75
2018-12-06T14:20:39.647Z,75
2018-12-06T14:21:39.867Z,70
2018-12-06T14:22:39.694Z,70
2018-12-06T14:23:40.156Z,70
2018-12-06T14:24:40.102Z,65
2018-12-06T14:25:39.967Z,60
2018-12-06T14:26:39.856Z,60
2018-12-06T14:27:39.850Z,55